Glenville, Connecticut
Current Conditions -  °F | °C
As of 6:56 PM on Tuesday 25 Nov 2014 (Local Time) from KHPN Reporting Station
Broken Clouds Broken Clouds  
Wind Chill: 48°   Ceiling: 12000
Heat Index: 48°   Visibility: 10mi
Dew Point: 29°   Wind: 3mph
Humidity: 48%   Direction: 240°WSW
Pressure: 30.04"   Gusts: NA
Location:  41.0864°N, 73.6612°W
Report Text: KHPN 252356Z 24003KT 10SM BKN120 09/M02 A3004 RMK AO2 SLP174 T00891017 10117 20078 53018
Loading
Personal Weather Stations






























Interactive Weather Map New forecast layout! Learn more

10-Day Weather Forecast

Advertisements
Track Severe Weather on mobile